Leroy, North Dakota
Current Conditions -  °F | °C
As of 11:15 PM on Saturday 25 Oct 2014 (Local Time) from K2C8 Reporting Station
Clear Clear  
Wind Chill: 41°   Ceiling: Unl
Heat Index: 41°   Visibility: 10mi
Dew Point: 25°   Wind: 3mph
Humidity: 53%   Direction: 250°WSW
Pressure: 29.97"   Gusts: NA
Location:  48.9026°N, 97.8187°W
Report Text: K2C8 260415Z AUTO 25003KT 10SM CLR 05/M04 A2997 RMK AO2
Loading
Personal Weather Stations






























Interactive Weather Map
Tropical Storm Tracking
New forecast layout! Learn more

10-Day Weather Forecast

Advertisements
Track Severe Weather on mobile